createdAt,value
2022-09-12T00:00:22.771Z,100
2022-09-12T00:01:24.251Z,100
2022-09-12T00:02:23.068Z,100
2022-09-12T00:03:22.846Z,100
2022-09-12T00:04:22.861Z,100
2022-09-12T00:05:22.855Z,100
2022-09-12T00:06:25.257Z,100
2022-09-12T00:07:22.905Z,100
2022-09-12T00:08:22.914Z,100
2022-09-12T00:09:23.001Z,100
2022-09-12T00:10:22.913Z,100
2022-09-12T00:11:22.968Z,100
2022-09-12T00:12:22.952Z,100
2022-09-12T00:13:22.939Z,100
2022-09-12T00:14:22.990Z,100
2022-09-12T00:15:23.095Z,100
2022-09-12T00:16:24.663Z,100
2022-09-12T00:17:23.006Z,100
2022-09-12T00:18:23.120Z,100
2022-09-12T00:19:23.066Z,100
2022-09-12T00:20:23.092Z,100
2022-09-12T00:21:23.514Z,100
2022-09-12T00:22:23.075Z,100
2022-09-12T00:23:23.136Z,100
2022-09-12T00:24:23.164Z,100
2022-09-12T00:25:23.142Z,100
2022-09-12T00:26:23.167Z,100
2022-09-12T00:27:23.120Z,100
2022-09-12T00:28:23.185Z,100
2022-09-12T00:29:23.179Z,100
2022-09-12T00:30:23.209Z,100
2022-09-12T00:31:25.120Z,100
2022-09-12T00:32:23.219Z,100
2022-09-12T00:33:23.227Z,100
2022-09-12T00:34:23.238Z,100
2022-09-12T00:35:23.297Z,100
2022-09-12T00:36:24.952Z,100
2022-09-12T00:37:23.270Z,100
2022-09-12T00:38:23.255Z,100
2022-09-12T00:39:23.299Z,100
2022-09-12T00:40:23.331Z,100
2022-09-12T00:41:27.753Z,100
2022-09-12T00:42:23.940Z,100
2022-09-12T00:45:28.475Z,100
2022-09-12T00:47:30.367Z,100
2022-09-12T00:48:33.541Z,100
2022-09-12T00:50:33.080Z,100
2022-09-12T00:51:34.317Z,100
2022-09-12T00:52:39.802Z,100
2022-09-12T00:53:36.636Z,100
2022-09-12T00:54:42.698Z,100
2022-09-12T00:55:45.198Z,100
2022-09-12T00:56:43.743Z,100
2022-09-12T00:57:48.748Z,100
2022-09-12T00:58:53.823Z,100
2022-09-12T00:59:57.376Z,100
2022-09-12T01:00:49.341Z,100
2022-09-12T01:01:50.817Z,100
2022-09-12T01:02:51.328Z,100
2022-09-12T01:03:49.324Z,100
2022-09-12T01:04:49.125Z,100
2022-09-12T01:06:02.349Z,100
2022-09-12T01:06:55.865Z,100
2022-09-12T01:07:54.577Z,100
2022-09-12T01:08:55.279Z,100
2022-09-12T01:09:54.468Z,100
2022-09-12T01:10:54.578Z,100
2022-09-12T01:11:55.063Z,100
2022-09-12T01:12:54.087Z,100
2022-09-12T01:13:54.494Z,100
2022-09-12T01:14:54.128Z,100
2022-09-12T01:15:54.312Z,100
2022-09-12T01:16:54.082Z,100
2022-09-12T01:34:43.319Z,100
2022-09-12T01:40:02.919Z,100
2022-09-12T01:42:12.394Z,100
2022-09-12T01:43:08.181Z,100
2022-09-12T01:44:13.730Z,100
2022-09-12T01:47:11.841Z,100
2022-09-12T01:48:13.839Z,100
2022-09-12T01:49:17.490Z,100
2022-09-12T01:50:22.555Z,100
2022-09-12T01:51:18.409Z,100
2022-09-12T01:54:20.769Z,100
2022-09-12T01:56:22.511Z,100
2022-09-12T01:57:23.028Z,100
2022-09-12T01:58:22.005Z,100
2022-09-12T02:00:19.706Z,100
2022-09-12T02:02:28.715Z,100
2022-09-12T02:03:27.806Z,100
2022-09-12T02:04:31.131Z,100
2022-09-12T02:05:30.170Z,100
2022-09-12T02:08:34.970Z,100
2022-09-12T02:10:38.403Z,100
2022-09-12T02:11:37.078Z,100
2022-09-12T02:12:38.959Z,100
2022-09-12T02:14:42.426Z,100
2022-09-12T02:16:48.643Z,100
2022-09-12T02:17:47.568Z,100
2022-09-12T02:18:47.167Z,100
2022-09-12T02:19:47.059Z,100
2022-09-12T02:20:48.872Z,100
2022-09-12T02:21:49.347Z,100
2022-09-12T02:22:48.001Z,100
2022-09-12T02:23:48.378Z,100
2022-09-12T02:24:47.927Z,100
2022-09-12T02:25:48.217Z,100
2022-09-12T02:27:54.102Z,100
2022-09-12T02:28:50.509Z,100
2022-09-12T02:29:50.453Z,100
2022-09-12T02:30:55.656Z,100
2022-09-12T02:31:57.301Z,100
2022-09-12T02:33:01.067Z,100
2022-09-12T02:39:04.600Z,100
2022-09-12T02:40:04.940Z,100
2022-09-12T02:41:04.638Z,100
2022-09-12T02:42:04.812Z,100
2022-09-12T02:43:05.482Z,100
2022-09-12T02:44:05.666Z,100
2022-09-12T02:45:05.149Z,100
2022-09-12T02:46:07.683Z,100
2022-09-12T02:49:09.416Z,100
2022-09-12T02:50:08.657Z,100
2022-09-12T02:51:08.272Z,100
2022-09-12T02:52:07.969Z,100
2022-09-12T02:53:08.484Z,100
2022-09-12T02:54:08.403Z,100
2022-09-12T02:55:09.112Z,100
2022-09-12T02:56:10.983Z,100
2022-09-12T02:58:12.897Z,100
2022-09-12T02:59:11.325Z,100
2022-09-12T03:00:10.092Z,100
2022-09-12T03:01:19.300Z,100
2022-09-12T03:08:36.425Z,100
2022-09-12T03:11:45.602Z,100
2022-09-12T03:20:15.792Z,100
2022-09-12T03:21:04.610Z,100
2022-09-12T03:23:05.292Z,100
2022-09-12T03:25:16.819Z,100
2022-09-12T03:26:16.172Z,100
2022-09-12T03:27:16.100Z,100
2022-09-12T03:28:17.141Z,100
2022-09-12T03:29:14.471Z,100
2022-09-12T03:30:13.813Z,100
2022-09-12T03:31:17.594Z,100
2022-09-12T03:32:14.568Z,100
2022-09-12T03:33:15.200Z,100
2022-09-12T03:34:14.242Z,100
2022-09-12T03:35:15.240Z,100
2022-09-12T03:36:22.594Z,100
2022-09-12T03:37:19.280Z,100
2022-09-12T03:38:19.327Z,100
2022-09-12T03:39:19.285Z,100
2022-09-12T03:40:19.693Z,100
2022-09-12T03:41:19.321Z,100
2022-09-12T03:42:19.329Z,100
2022-09-12T03:43:19.498Z,100
2022-09-12T03:44:19.693Z,100
2022-09-12T03:45:19.459Z,100
2022-09-12T03:46:19.354Z,100
2022-09-12T03:47:19.450Z,100
2022-09-12T03:48:19.385Z,100
2022-09-12T03:49:19.393Z,100
2022-09-12T03:50:19.441Z,100
2022-09-12T03:51:19.436Z,100
2022-09-12T03:52:19.552Z,100
2022-09-12T03:53:19.469Z,100
2022-09-12T03:54:19.488Z,100
2022-09-12T03:55:19.512Z,100
2022-09-12T03:56:19.603Z,100
2022-09-12T03:57:19.585Z,100
2022-09-12T03:58:19.561Z,100
2022-09-12T03:59:19.585Z,100
2022-09-12T04:00:20.050Z,100
2022-09-12T04:01:20.025Z,100
2022-09-12T04:02:19.688Z,100
2022-09-12T04:03:19.632Z,100
2022-09-12T04:04:20.026Z,100
2022-09-12T04:05:19.673Z,100
2022-09-12T04:06:20.749Z,100
2022-09-12T04:07:19.695Z,100
2022-09-12T04:08:19.714Z,100
2022-09-12T04:09:19.732Z,100
2022-09-12T04:10:19.751Z,100
2022-09-12T04:11:20.375Z,100
2022-09-12T04:12:20.092Z,100
2022-09-12T04:13:19.838Z,100
2022-09-12T04:14:19.782Z,100
2022-09-12T04:15:19.827Z,100
2022-09-12T04:16:19.859Z,100
2022-09-12T04:17:20.038Z,100
2022-09-12T04:18:19.916Z,100
2022-09-12T04:19:19.869Z,100
2022-09-12T04:20:19.915Z,100
2022-09-12T04:21:20.849Z,100
2022-09-12T04:22:19.903Z,100
2022-09-12T04:23:20.299Z,100
2022-09-12T04:24:19.982Z,100
2022-09-12T04:25:19.997Z,100
2022-09-12T04:26:20.185Z,100
2022-09-12T04:27:20.055Z,100
2022-09-12T04:28:20.115Z,100
2022-09-12T04:29:20.056Z,100
2022-09-12T04:30:20.042Z,100
2022-09-12T04:31:20.156Z,100
2022-09-12T04:32:20.222Z,100
2022-09-12T04:33:20.345Z,100
2022-09-12T04:34:20.179Z,100
2022-09-12T04:35:20.182Z,100
2022-09-12T04:36:20.332Z,100
2022-09-12T04:37:20.248Z,100
2022-09-12T04:38:20.225Z,100
2022-09-12T04:39:20.207Z,100
2022-09-12T04:40:20.336Z,100
2022-09-12T04:41:22.540Z,100
2022-09-12T04:42:20.249Z,100
2022-09-12T04:43:20.295Z,100
2022-09-12T04:44:20.365Z,100
2022-09-12T04:45:20.332Z,100
2022-09-12T04:46:20.433Z,100
2022-09-12T04:47:20.370Z,100
2022-09-12T04:48:20.369Z,100
2022-09-12T04:49:20.409Z,100
2022-09-12T04:50:20.408Z,100
2022-09-12T04:51:25.243Z,100
2022-09-12T04:52:21.945Z,100
2022-09-12T04:53:21.947Z,100
2022-09-12T04:54:22.044Z,100
2022-09-12T04:55:22.313Z,100
2022-09-12T04:56:22.621Z,100
2022-09-12T04:57:21.954Z,100
2022-09-12T04:58:21.964Z,100
2022-09-12T04:59:22.303Z,100
2022-09-12T05:00:22.069Z,100
2022-09-12T05:01:22.610Z,100
2022-09-12T05:02:22.233Z,100
2022-09-12T05:03:22.148Z,100
2022-09-12T05:04:22.069Z,100
2022-09-12T05:05:22.242Z,100
2022-09-12T05:06:23.005Z,100
2022-09-12T05:07:22.236Z,100
2022-09-12T05:08:22.249Z,100
2022-09-12T05:09:22.274Z,100
2022-09-12T05:10:22.296Z,100
2022-09-12T05:11:26.606Z,100
2022-09-12T05:12:27.547Z,100
2022-09-12T05:13:27.387Z,100
2022-09-12T05:14:27.118Z,100
2022-09-12T05:15:27.196Z,100
2022-09-12T05:16:29.457Z,100
2022-09-12T05:17:29.008Z,100
2022-09-12T05:18:27.459Z,100
2022-09-12T05:19:27.990Z,100
2022-09-12T05:20:28.105Z,100
2022-09-12T05:21:27.259Z,100
2022-09-12T05:22:27.241Z,100
2022-09-12T05:23:27.663Z,100
2022-09-12T05:24:27.236Z,100
2022-09-12T05:25:27.274Z,100
2022-09-12T05:26:27.633Z,100
2022-09-12T05:27:27.332Z,100
2022-09-12T05:28:34.712Z,100
2022-09-12T05:29:31.545Z,100
2022-09-12T05:30:31.457Z,100
2022-09-12T05:31:31.462Z,100
2022-09-12T05:32:31.666Z,100
2022-09-12T05:33:32.199Z,100
2022-09-12T05:34:31.490Z,100
2022-09-12T05:35:31.518Z,100
2022-09-12T05:36:31.704Z,100
2022-09-12T05:37:31.510Z,100
2022-09-12T05:38:31.915Z,100
2022-09-12T05:39:31.501Z,100
2022-09-12T05:40:31.841Z,100
2022-09-12T05:41:32.170Z,100
2022-09-12T05:42:31.571Z,100
2022-09-12T05:43:34.799Z,100
2022-09-12T05:44:31.625Z,100
2022-09-12T05:45:31.708Z,100
2022-09-12T05:46:35.402Z,100
2022-09-12T05:47:32.178Z,100
2022-09-12T05:48:32.076Z,100
2022-09-12T05:49:32.215Z,100
2022-09-12T05:50:32.065Z,100
2022-09-12T05:51:33.345Z,100
2022-09-12T05:52:32.190Z,100
2022-09-12T05:53:32.538Z,100
2022-09-12T05:54:32.131Z,100
2022-09-12T05:55:32.163Z,100
2022-09-12T05:56:33.398Z,100
2022-09-12T05:57:32.254Z,100
2022-09-12T05:58:32.506Z,100
2022-09-12T05:59:32.285Z,100
2022-09-12T06:00:33.636Z,100
2022-09-12T06:01:33.184Z,100
2022-09-12T06:02:32.458Z,100
2022-09-12T06:03:32.310Z,100
2022-09-12T06:04:32.293Z,100
2022-09-12T06:05:32.366Z,100
2022-09-12T06:06:35.501Z,100
2022-09-12T06:07:32.653Z,100
2022-09-12T06:08:32.874Z,100
2022-09-12T06:09:32.369Z,100
2022-09-12T06:10:32.459Z,100
2022-09-12T06:11:33.449Z,100
2022-09-12T06:12:32.397Z,100
2022-09-12T06:13:33.519Z,100
2022-09-12T06:14:32.466Z,100
2022-09-12T06:15:32.543Z,100
2022-09-12T06:16:33.983Z,100
2022-09-12T06:17:33.479Z,100
2022-09-12T06:18:32.815Z,100
2022-09-12T06:19:32.644Z,100
2022-09-12T06:20:32.597Z,100
2022-09-12T06:21:32.912Z,100
2022-09-12T06:22:32.671Z,100
2022-09-12T06:23:33.164Z,100
2022-09-12T06:24:32.608Z,100
2022-09-12T06:25:32.632Z,100
2022-09-12T06:26:32.851Z,100
2022-09-12T06:27:32.651Z,100
2022-09-12T06:28:34.923Z,100
2022-09-12T06:29:32.833Z,100
2022-09-12T06:30:32.758Z,100
2022-09-12T06:31:34.634Z,100
2022-09-12T06:32:32.746Z,100
2022-09-12T06:33:36.572Z,100
2022-09-12T06:34:33.276Z,100
2022-09-12T06:35:35.799Z,100
2022-09-12T06:36:34.879Z,100
2022-09-12T06:37:33.302Z,100
2022-09-12T06:38:33.663Z,100
2022-09-12T06:39:33.328Z,100
2022-09-12T06:40:33.499Z,100
2022-09-12T06:41:33.503Z,100
2022-09-12T06:42:33.369Z,100
2022-09-12T06:43:33.895Z,100
2022-09-12T06:44:33.598Z,100
2022-09-12T06:45:33.410Z,100
2022-09-12T06:46:33.619Z,100
2022-09-12T06:47:33.466Z,100
2022-09-12T06:48:33.781Z,100
2022-09-12T06:49:33.501Z,100
2022-09-12T06:50:33.524Z,100
2022-09-12T06:51:33.647Z,100
2022-09-12T06:52:33.486Z,100
2022-09-12T06:53:34.033Z,100
2022-09-12T06:54:33.766Z,100
2022-09-12T06:55:33.545Z,100
2022-09-12T06:56:33.545Z,100
2022-09-12T06:57:33.563Z,100
2022-09-12T06:58:34.402Z,100
2022-09-12T06:59:33.622Z,100
2022-09-12T07:00:33.628Z,100
2022-09-12T07:01:34.743Z,100
2022-09-12T07:02:33.734Z,100
2022-09-12T07:03:34.162Z,100
2022-09-12T07:04:33.671Z,100
2022-09-12T07:05:34.000Z,100
2022-09-12T07:06:38.036Z,100
2022-09-12T07:07:34.674Z,100
2022-09-12T07:08:35.287Z,100
2022-09-12T07:09:34.668Z,100
2022-09-12T07:10:34.695Z,100
2022-09-12T07:11:35.944Z,100
2022-09-12T07:12:34.774Z,100
2022-09-12T07:13:34.727Z,100
2022-09-12T07:14:34.762Z,100
2022-09-12T07:15:35.294Z,100
2022-09-12T07:16:35.751Z,100
2022-09-12T07:17:34.969Z,100
2022-09-12T07:18:35.352Z,100
2022-09-12T07:19:34.866Z,100
2022-09-12T07:20:34.929Z,100
2022-09-12T07:21:35.184Z,100
2022-09-12T07:22:34.908Z,100
2022-09-12T07:23:35.131Z,100
2022-09-12T07:24:34.948Z,100
2022-09-12T07:25:35.089Z,100
2022-09-12T07:26:34.978Z,100
2022-09-12T07:27:34.933Z,100
2022-09-12T07:28:35.166Z,100
2022-09-12T07:29:37.655Z,100
2022-09-12T07:30:36.320Z,100
2022-09-12T07:31:35.144Z,100
2022-09-12T07:32:35.062Z,100
2022-09-12T07:33:35.676Z,100
2022-09-12T07:34:35.397Z,100
2022-09-12T07:35:35.095Z,100
2022-09-12T07:36:35.208Z,100
2022-09-12T07:37:35.292Z,100
2022-09-12T07:38:35.242Z,100
2022-09-12T07:39:35.166Z,100
2022-09-12T07:40:35.242Z,100
2022-09-12T07:41:35.284Z,100
2022-09-12T07:42:35.240Z,99.64
2022-09-12T07:43:35.334Z,99.12
2022-09-12T07:44:35.269Z,99.36
2022-09-12T07:45:35.501Z,99.39
2022-09-12T07:46:35.439Z,99.27
2022-09-12T07:47:35.453Z,99.19
2022-09-12T07:48:35.680Z,99.39
2022-09-12T07:49:35.472Z,99.36
2022-09-12T07:50:35.693Z,99.59
2022-09-12T07:51:35.504Z,99.82
2022-09-12T07:52:35.488Z,99.59
2022-09-12T07:53:39.506Z,99.39
2022-09-12T07:54:36.137Z,98.88
2022-09-12T07:55:36.397Z,98.91
2022-09-12T07:56:39.225Z,99.08
2022-09-12T07:57:36.182Z,98.79
2022-09-12T07:58:36.943Z,98.7
2022-09-12T07:59:52.178Z,98.54
2022-09-12T08:00:39.492Z,98.19
2022-09-12T08:01:39.576Z,98.5
2022-09-12T08:02:39.531Z,98.28
2022-09-12T08:03:40.270Z,98.05
2022-09-12T08:04:39.854Z,98.05
2022-09-12T08:05:39.609Z,98.29
2022-09-12T08:06:39.630Z,98.56
2022-09-12T08:07:39.616Z,98.57
2022-09-12T08:08:40.052Z,98.33
2022-09-12T08:09:39.632Z,98.15
2022-09-12T08:10:39.661Z,98.16
2022-09-12T08:11:39.728Z,98.2
2022-09-12T08:12:39.727Z,98.08
2022-09-12T08:13:40.794Z,98.18
2022-09-12T08:14:39.755Z,98.2
2022-09-12T08:15:39.816Z,98.22
2022-09-12T08:16:39.779Z,97.99
2022-09-12T08:17:39.923Z,98.11
2022-09-12T08:18:40.254Z,97.91
2022-09-12T08:19:39.784Z,97.84
2022-09-12T08:20:39.805Z,97.82
2022-09-12T08:21:39.809Z,97.61
2022-09-12T08:22:39.897Z,97.52
2022-09-12T08:23:39.849Z,97.8
2022-09-12T08:24:42.783Z,97.29
2022-09-12T08:25:39.878Z,97.19
2022-09-12T08:26:39.910Z,96.79
2022-09-12T08:27:39.930Z,96.96
2022-09-12T08:28:40.133Z,97.1
2022-09-12T08:29:40.564Z,97.21
2022-09-12T08:30:40.216Z,97.54
2022-09-12T08:31:40.156Z,97.75
2022-09-12T08:32:40.059Z,97.74
2022-09-12T08:33:39.993Z,97.78
2022-09-12T08:34:40.016Z,97.56
2022-09-12T08:35:40.090Z,97.73
2022-09-12T08:36:40.104Z,97.73
2022-09-12T08:37:40.199Z,97.61
2022-09-12T08:38:41.840Z,97.47
2022-09-12T08:39:40.256Z,97.43
2022-09-12T08:40:46.917Z,97.46
2022-09-12T08:41:47.430Z,97.68
2022-09-12T08:42:52.115Z,97.67
2022-09-12T08:45:54.865Z,97.21
2022-09-12T08:47:51.277Z,97.19
2022-09-12T08:48:51.832Z,96.85
2022-09-12T08:50:52.476Z,96.89
2022-09-12T08:51:53.127Z,96.89
2022-09-12T08:52:55.777Z,96.9
2022-09-12T08:53:53.357Z,96.71
2022-09-12T08:54:52.715Z,96.42
2022-09-12T08:55:53.271Z,96.21
2022-09-12T08:57:53.997Z,95.52
2022-09-12T08:58:53.603Z,95.4
2022-09-12T08:59:53.587Z,95.45
2022-09-12T09:01:57.652Z,94.74
2022-09-12T09:11:26.724Z,94.53
2022-09-12T09:14:31.501Z,96.04
2022-09-12T09:15:33.795Z,96.28
2022-09-12T09:16:36.177Z,96.25
2022-09-12T09:17:39.890Z,96.49
2022-09-12T09:18:37.081Z,96.45
2022-09-12T09:19:38.834Z,96.42
2022-09-12T09:20:49.241Z,96.06
2022-09-12T09:21:44.698Z,96.04
2022-09-12T09:23:49.218Z,94.13
2022-09-12T09:24:50.455Z,93.97
2022-09-12T09:26:50.842Z,93.63
2022-09-12T09:29:53.246Z,92.65
2022-09-12T09:30:50.785Z,92.34
2022-09-12T09:31:54.921Z,92.33
2022-09-12T09:32:53.682Z,92.61
2022-09-12T09:33:52.333Z,92.69
2022-09-12T09:34:51.353Z,92.78
2022-09-12T09:43:22.829Z,93.16
2022-09-12T09:44:19.257Z,93.59
2022-09-12T09:45:23.451Z,93.17
2022-09-12T09:46:19.850Z,93.36
2022-09-12T09:47:19.661Z,93.69
2022-09-12T09:48:22.278Z,93.76
2022-09-12T09:49:20.863Z,93.18
2022-09-12T09:50:19.759Z,92.9
2022-09-12T09:51:27.910Z,92.7
2022-09-12T09:52:26.376Z,92.82
2022-09-12T09:53:28.912Z,92.64
2022-09-12T09:54:27.926Z,93.06
2022-09-12T09:55:27.848Z,92.92
2022-09-12T09:57:39.519Z,92.71
2022-09-12T09:58:33.325Z,93.02
2022-09-12T09:59:32.795Z,92.46
2022-09-12T10:00:33.016Z,92.22
2022-09-12T10:01:31.496Z,91.27
2022-09-12T10:02:31.235Z,90.94
2022-09-12T10:03:37.001Z,90.35
2022-09-12T10:04:39.231Z,90.09
2022-09-12T10:06:38.645Z,89.67
2022-09-12T10:07:38.149Z,89.72
2022-09-12T10:08:38.137Z,89.01
2022-09-12T10:09:38.407Z,89.56
2022-09-12T10:10:38.073Z,89.18
2022-09-12T10:11:41.525Z,89.53
2022-09-12T10:12:42.374Z,89.71
2022-09-12T10:13:51.672Z,89.53
2022-09-12T10:14:43.283Z,89.1
2022-09-12T10:15:55.176Z,89.51
2022-09-12T10:16:51.636Z,89.96
2022-09-12T10:17:49.380Z,90.12
2022-09-12T10:18:49.992Z,90.29
2022-09-12T10:20:04.583Z,90.3
2022-09-12T10:20:49.580Z,90.5
2022-09-12T10:21:53.395Z,90.7
2022-09-12T10:22:49.713Z,90.44
2022-09-12T10:24:56.726Z,91.03
2022-09-12T10:25:55.957Z,90.67
2022-09-12T10:26:58.583Z,90.64
2022-09-12T10:27:56.910Z,90.35
2022-09-12T10:28:55.699Z,90.45
2022-09-12T10:30:58.009Z,90.78
2022-09-12T10:31:59.695Z,90.72
2022-09-12T10:33:04.489Z,90.56
2022-09-12T10:34:00.853Z,90.42
2022-09-12T10:35:02.191Z,90.31
2022-09-12T10:36:01.408Z,89.89
2022-09-12T10:37:08.015Z,89.9
2022-09-12T10:38:05.757Z,89.79
2022-09-12T10:39:05.071Z,90.04
2022-09-12T10:40:05.882Z,89.82
2022-09-12T10:41:06.700Z,90.05
2022-09-12T10:42:04.912Z,90.14
2022-09-12T10:44:08.707Z,89.77
2022-09-12T10:47:19.992Z,89.76
2022-09-12T10:52:23.399Z,89.08
2022-09-12T10:53:21.252Z,88.86
2022-09-12T10:54:21.759Z,89
2022-09-12T10:55:23.382Z,89.16
2022-09-12T10:56:21.697Z,89.33
2022-09-12T11:00:25.018Z,89.75
2022-09-12T11:03:40.102Z,89.44
2022-09-12T11:11:02.643Z,89.25
2022-09-12T11:12:10.958Z,88.83
2022-09-12T11:19:27.573Z,88.16
2022-09-12T11:26:44.518Z,87.68
2022-09-12T11:33:54.977Z,89.75
2022-09-12T11:35:57.490Z,90.28
2022-09-12T11:39:12.549Z,90.07
2022-09-12T11:42:21.759Z,90.08
2022-09-12T11:46:29.369Z,90.39
2022-09-12T11:47:26.221Z,90.49
2022-09-12T11:49:36.565Z,90.52
2022-09-12T11:50:29.640Z,90.41
2022-09-12T11:51:32.918Z,90.37
2022-09-12T11:52:35.155Z,90.3
2022-09-12T11:53:36.424Z,90.35
2022-09-12T11:54:35.951Z,90.56
2022-09-12T11:55:43.360Z,90.28
2022-09-12T11:56:38.062Z,90.43
2022-09-12T11:58:36.782Z,90.66
2022-09-12T11:59:48.441Z,90.59
2022-09-12T12:00:43.096Z,90.5
2022-09-12T12:01:47.677Z,90.92
2022-09-12T12:03:45.972Z,90.21
2022-09-12T12:04:55.786Z,90.21
2022-09-12T12:07:53.484Z,90.88
2022-09-12T12:08:52.377Z,90.31
2022-09-12T12:09:52.267Z,90.02
2022-09-12T12:10:57.216Z,89.67
2022-09-12T12:11:56.397Z,89.77
2022-09-12T12:12:54.849Z,90.19
2022-09-12T12:13:56.739Z,89.84
2022-09-12T12:14:55.706Z,89.98
2022-09-12T12:16:00.082Z,89.82
2022-09-12T12:16:56.950Z,89.94
2022-09-12T12:18:08.009Z,89.95
2022-09-12T12:19:00.741Z,90.2
2022-09-12T12:20:06.472Z,90.35
2022-09-12T12:22:08.794Z,89.95
2022-09-12T12:23:06.945Z,89.89
2022-09-12T12:24:17.572Z,89.77
2022-09-12T12:31:22.415Z,91.34
2022-09-12T12:32:23.013Z,92.3
2022-09-12T12:38:35.334Z,93.39
2022-09-12T12:40:32.776Z,93.87
2022-09-12T12:43:38.434Z,93.9
2022-09-12T12:45:48.510Z,94.02
2022-09-12T12:47:47.411Z,94.05
2022-09-12T12:50:54.158Z,93.71
2022-09-12T12:52:58.204Z,93.4
2022-09-12T12:53:55.800Z,93.35
2022-09-12T12:54:57.426Z,93.04
2022-09-12T12:55:56.176Z,92.97
2022-09-12T12:57:58.873Z,93.25
2022-09-12T12:58:59.263Z,93.06
2022-09-12T13:02:03.884Z,92.75
2022-09-12T13:04:12.561Z,92.87
2022-09-12T13:05:20.623Z,92.69
2022-09-12T13:07:25.193Z,91.58
2022-09-12T13:08:29.413Z,91.88
2022-09-12T13:10:28.021Z,91.68
2022-09-12T13:12:30.757Z,91.63
2022-09-12T13:17:39.565Z,90.28
2022-09-12T13:19:40.787Z,89.68
2022-09-12T13:22:49.095Z,89.77
2022-09-12T13:24:52.553Z,89.85
2022-09-12T13:25:53.863Z,90.06
2022-09-12T13:26:52.594Z,89.93
2022-09-12T13:32:00.417Z,89.6
2022-09-12T13:33:03.741Z,89.66
2022-09-12T13:34:01.638Z,89.81
2022-09-12T13:43:39.804Z,90.8
2022-09-12T13:44:35.126Z,91.27
2022-09-12T13:45:34.808Z,91.41
2022-09-12T13:46:33.753Z,91.12
2022-09-12T13:47:35.227Z,91.18
2022-09-12T13:48:32.174Z,91.19
2022-09-12T13:49:33.640Z,91.1
2022-09-12T13:51:33.056Z,91.17
2022-09-12T13:52:37.531Z,91.34
2022-09-12T13:54:36.903Z,91.51
2022-09-12T13:55:39.397Z,91.42
2022-09-12T13:57:39.208Z,91.13
2022-09-12T13:58:37.664Z,90.81
2022-09-12T13:59:41.482Z,90.49
2022-09-12T14:00:37.657Z,90.65
2022-09-12T14:01:38.940Z,90.17
2022-09-12T14:02:39.684Z,90.08
2022-09-12T14:03:41.601Z,90.64
2022-09-12T14:04:38.122Z,90.17
2022-09-12T14:05:38.427Z,89.92
2022-09-12T14:06:45.398Z,89.96
2022-09-12T14:08:43.881Z,90.19
2022-09-12T14:09:45.117Z,90.05
2022-09-12T14:10:45.311Z,90.27
2022-09-12T14:11:43.901Z,90.87
2022-09-12T14:12:43.788Z,90.73
2022-09-12T14:13:43.923Z,90.84
2022-09-12T14:14:46.683Z,90.87
2022-09-12T14:15:45.217Z,90.58
2022-09-12T14:16:43.920Z,90.56
2022-09-12T14:17:48.336Z,90.53
2022-09-12T14:18:47.160Z,90.7
2022-09-12T14:19:44.670Z,90.77
2022-09-12T14:20:45.081Z,90.54
2022-09-12T14:21:45.780Z,90.5
2022-09-12T14:22:48.193Z,90.37
2022-09-12T14:23:48.225Z,90.73
2022-09-12T14:24:50.356Z,90.69
2022-09-12T14:25:47.477Z,90.76
2022-09-12T14:26:46.961Z,90.72
2022-09-12T14:27:48.833Z,90.95
2022-09-12T14:28:47.216Z,91.04
2022-09-12T14:29:47.007Z,90.98
2022-09-12T14:32:01.031Z,90.96
2022-09-12T14:37:06.103Z,91.33
2022-09-12T14:38:08.349Z,91.38
2022-09-12T14:39:07.102Z,91.41
2022-09-12T14:40:16.380Z,91.41
2022-09-12T14:41:09.392Z,90.96
2022-09-12T14:42:19.145Z,90.67
2022-09-12T14:43:19.325Z,90.27
2022-09-12T14:44:16.485Z,90.22
2022-09-12T14:45:17.873Z,90.36
2022-09-12T14:46:16.877Z,89.99
2022-09-12T14:47:19.814Z,90.01
2022-09-12T14:48:18.344Z,90.22
2022-09-12T14:49:18.371Z,90.47
2022-09-12T14:50:18.248Z,90.28
2022-09-12T14:51:21.041Z,90.16
2022-09-12T14:52:25.446Z,90.18
2022-09-12T14:53:30.795Z,90.17
2022-09-12T14:55:31.066Z,90.15
2022-09-12T14:56:38.076Z,90.24
2022-09-12T14:57:39.481Z,90.17
2022-09-12T14:58:31.217Z,90.3
2022-09-12T14:59:38.287Z,90.48
2022-09-12T15:00:35.004Z,90.46
2022-09-12T15:01:35.040Z,90.48
2022-09-12T15:02:35.039Z,90.48
2022-09-12T15:03:36.465Z,90.54
2022-09-12T15:04:45.029Z,90.61
2022-09-12T15:05:48.034Z,90.47
2022-09-12T15:06:39.702Z,90.34
2022-09-12T15:07:44.399Z,90.42
2022-09-12T15:08:41.831Z,90.74
2022-09-12T15:09:46.446Z,90.46
2022-09-12T15:10:44.205Z,91.2
2022-09-12T15:11:44.043Z,91.04
2022-09-12T15:12:44.094Z,90.87
2022-09-12T15:13:44.119Z,90.9
2022-09-12T15:14:44.303Z,90.53
2022-09-12T15:15:51.700Z,90.68
2022-09-12T15:16:48.414Z,90.58
2022-09-12T15:17:51.441Z,90.33
2022-09-12T15:18:48.488Z,90.55
2022-09-12T15:19:48.470Z,90.65
2022-09-12T15:20:50.607Z,90.82
2022-09-12T15:21:48.542Z,90.5
2022-09-12T15:22:48.673Z,90.73
2022-09-12T15:23:49.689Z,91.2
2022-09-12T15:24:48.613Z,91.07
2022-09-12T15:25:48.576Z,91.14
2022-09-12T15:26:48.587Z,91.48
2022-09-12T15:27:50.410Z,91.3
2022-09-12T15:28:48.896Z,91.15
2022-09-12T15:29:48.705Z,90.97
2022-09-12T15:30:49.799Z,91.11
2022-09-12T15:31:50.682Z,91.07
2022-09-12T15:32:48.679Z,91.38
2022-09-12T15:33:48.983Z,91.26
2022-09-12T15:34:48.738Z,91.34
2022-09-12T15:35:48.739Z,91.58
2022-09-12T15:36:48.686Z,91.66
2022-09-12T15:37:49.494Z,92
2022-09-12T15:38:49.327Z,91.8
2022-09-12T15:39:49.465Z,91.72
2022-09-12T15:40:52.160Z,91.76
2022-09-12T15:41:49.156Z,91.59
2022-09-12T15:42:48.841Z,91.55
2022-09-12T15:43:49.461Z,91.74
2022-09-12T15:44:48.857Z,91.89
2022-09-12T15:45:50.253Z,92.01
2022-09-12T15:46:48.918Z,91.95
2022-09-12T15:47:49.174Z,91.87
2022-09-12T15:48:49.128Z,91.73
2022-09-12T15:49:48.935Z,91.46
2022-09-12T15:50:49.064Z,91.64
2022-09-12T15:51:48.957Z,91.86
2022-09-12T15:52:48.970Z,91.32
2022-09-12T15:53:49.647Z,91.19
2022-09-12T15:54:49.013Z,91.3
2022-09-12T15:55:49.035Z,91.23
2022-09-12T15:56:49.319Z,91.34
2022-09-12T15:57:49.126Z,91.63
2022-09-12T15:58:58.852Z,91.76
2022-09-12T15:59:51.209Z,91.9
2022-09-12T16:00:51.213Z,92.09
2022-09-12T16:01:51.235Z,92.32
2022-09-12T16:02:52.567Z,92.47
2022-09-12T16:03:51.194Z,92.66
2022-09-12T16:04:51.238Z,92.7
2022-09-12T16:05:58.787Z,92.78
2022-09-12T16:06:56.458Z,92.58
2022-09-12T16:07:55.527Z,92.53
2022-09-12T16:08:55.492Z,92.37
2022-09-12T16:09:55.533Z,92.45
2022-09-12T16:10:56.899Z,92.39
2022-09-12T16:11:55.501Z,92.73
2022-09-12T16:12:55.558Z,92.54
2022-09-12T16:13:55.681Z,92.69
2022-09-12T16:14:55.861Z,92.89
2022-09-12T16:15:58.967Z,92.8
2022-09-12T16:16:56.892Z,93.08
2022-09-12T16:17:55.697Z,93.5
2022-09-12T16:18:55.691Z,93.59
2022-09-12T16:19:55.786Z,93.82
2022-09-12T16:20:56.323Z,93.72
2022-09-12T16:21:55.755Z,93.64
2022-09-12T16:22:55.813Z,93.82
2022-09-12T16:23:55.803Z,93.6
2022-09-12T16:24:55.828Z,93.73
2022-09-12T16:25:57.093Z,94
2022-09-12T16:27:00.454Z,94.17
2022-09-12T16:27:57.966Z,94.38
2022-09-12T16:28:58.540Z,94.54
2022-09-12T16:29:58.119Z,94.77
2022-09-12T16:30:58.980Z,94.95
2022-09-12T16:31:58.013Z,95.48
2022-09-12T16:32:58.084Z,95.76
2022-09-12T16:33:58.085Z,96.22
2022-09-12T16:34:58.201Z,96.79
2022-09-12T16:36:01.921Z,97.07
2022-09-12T16:36:58.580Z,96.83
2022-09-12T16:38:01.599Z,96.95
2022-09-12T16:38:58.589Z,97.04
2022-09-12T16:39:58.808Z,97.34
2022-09-12T16:41:05.478Z,97.35
2022-09-12T16:42:02.181Z,97.54
2022-09-12T16:43:02.202Z,97.44
2022-09-12T16:44:02.342Z,97.68
2022-09-12T16:45:02.279Z,97.94
2022-09-12T16:46:06.592Z,98.15
2022-09-12T16:47:03.330Z,98.3
2022-09-12T16:48:03.395Z,98.51
2022-09-12T16:49:04.424Z,98.56
2022-09-12T16:50:03.873Z,98.72
2022-09-12T16:51:04.763Z,99.06
2022-09-12T16:52:03.612Z,99
2022-09-12T16:53:03.504Z,99.05